createdAt,value
2018-09-16T00:00:04.838Z,14.70
2018-09-16T00:02:37.887Z,14.77
2018-09-16T00:05:11.165Z,14.43
2018-09-16T00:07:42.369Z,14.60
2018-09-16T00:10:14.209Z,14.13
2018-09-16T00:12:45.423Z,13.50
2018-09-16T00:15:17.088Z,13.40
2018-09-16T00:17:48.198Z,15.63
2018-09-16T00:20:19.965Z,14.27
2018-09-16T00:22:51.357Z,14.70
2018-09-16T00:25:23.327Z,14.30
2018-09-16T00:27:54.913Z,15.10
2018-09-16T00:30:26.585Z,14.83
2018-09-16T00:32:57.913Z,15.03
2018-09-16T00:35:29.750Z,15.23
2018-09-16T00:38:01.574Z,15.63
2018-09-16T00:40:33.373Z,14.60
2018-09-16T00:43:04.721Z,14.17
2018-09-16T00:45:36.605Z,14.60
2018-09-16T00:48:08.033Z,15.87
2018-09-16T00:50:39.478Z,15.87
2018-09-16T00:53:10.917Z,15.33
2018-09-16T00:55:42.702Z,16.03
2018-09-16T00:58:13.969Z,16.67
2018-09-16T01:00:49.745Z,17.40
2018-09-16T01:03:21.118Z,16.17
2018-09-16T01:05:58.079Z,15.60
2018-09-16T01:08:29.473Z,16.90
2018-09-16T01:11:01.031Z,17.30
2018-09-16T01:13:32.393Z,17.93
2018-09-16T01:16:04.694Z,16.83
2018-09-16T01:18:36.186Z,17.40
2018-09-16T01:21:07.517Z,18.93
2018-09-16T01:23:38.910Z,16.50
2018-09-16T01:26:10.968Z,18.27
2018-09-16T01:28:42.610Z,16.73
2018-09-16T01:31:14.149Z,18.50
2018-09-16T01:33:45.702Z,17.43
2018-09-16T01:36:17.231Z,18.50
2018-09-16T01:38:53.729Z,17.63
2018-09-16T01:41:26.240Z,17.00
2018-09-16T01:43:57.512Z,18.00
2018-09-16T01:46:29.254Z,18.20
2018-09-16T01:49:00.801Z,18.33
2018-09-16T01:51:32.454Z,17.23
2018-09-16T01:54:03.853Z,18.47
2018-09-16T01:56:35.373Z,18.43
2018-09-16T01:59:06.621Z,18.57
2018-09-16T02:01:38.137Z,19.70
2018-09-16T02:04:09.517Z,19.40
2018-09-16T02:06:42.397Z,17.40
2018-09-16T02:09:13.650Z,18.00
2018-09-16T02:11:46.038Z,17.90
2018-09-16T02:14:16.867Z,18.07
2018-09-16T02:16:47.885Z,18.43
2018-09-16T02:19:18.913Z,17.40
2018-09-16T02:21:50.714Z,18.67
2018-09-16T02:24:23.141Z,17.53
2018-09-16T02:26:54.637Z,15.27
2018-09-16T02:29:26.222Z,14.10
2018-09-16T02:31:58.894Z,15.70
2018-09-16T02:34:30.301Z,14.23
2018-09-16T02:37:01.891Z,13.93
2018-09-16T02:39:33.314Z,14.03
2018-09-16T02:42:05.946Z,13.77
2018-09-16T02:44:37.458Z,13.60
2018-09-16T02:47:09.301Z,12.73
2018-09-16T02:49:40.730Z,12.97
2018-09-16T02:52:12.566Z,12.73
2018-09-16T02:54:44.075Z,12.20
2018-09-16T02:57:15.746Z,11.77
2018-09-16T02:59:47.199Z,12.60
2018-09-16T03:02:19.715Z,12.70
2018-09-16T03:04:51.340Z,12.23
2018-09-16T03:07:24.549Z,11.67
2018-09-16T03:09:56.485Z,12.30
2018-09-16T03:12:28.194Z,10.67
2018-09-16T03:14:59.786Z,11.50
2018-09-16T03:17:31.466Z,11.00
2018-09-16T03:20:02.930Z,9.70
2018-09-16T03:22:34.437Z,11.17
2018-09-16T03:25:05.711Z,10.03
2018-09-16T03:27:37.605Z,10.57
2018-09-16T03:30:09.177Z,10.37
2018-09-16T03:32:40.947Z,10.40
2018-09-16T03:35:12.461Z,9.30
2018-09-16T03:37:44.121Z,10.60
2018-09-16T03:40:15.380Z,9.83
2018-09-16T03:42:47.469Z,10.73
2018-09-16T03:45:18.677Z,10.97
2018-09-16T03:47:50.302Z,10.00
2018-09-16T03:50:21.870Z,11.73
2018-09-16T03:52:53.441Z,9.10
2018-09-16T03:55:24.774Z,9.40
2018-09-16T03:57:56.511Z,9.97
2018-09-16T04:00:27.849Z,9.20
2018-09-16T04:02:59.570Z,9.53
2018-09-16T04:05:31.069Z,9.10
2018-09-16T04:08:03.949Z,10.23
2018-09-16T04:10:35.452Z,10.73
2018-09-16T04:13:06.990Z,9.47
2018-09-16T04:15:38.538Z,10.30
2018-09-16T04:18:10.345Z,9.13
2018-09-16T04:20:41.954Z,10.50
2018-09-16T04:23:13.598Z,9.43
2018-09-16T04:25:45.145Z,10.67
2018-09-16T04:28:16.664Z,8.50
2018-09-16T04:30:48.689Z,9.80
2018-09-16T04:33:20.337Z,8.83
2018-09-16T04:35:51.830Z,9.00
2018-09-16T04:38:23.530Z,10.63
2018-09-16T04:40:54.808Z,10.13
2018-09-16T04:43:26.510Z,10.70
2018-09-16T04:45:57.913Z,10.87
2018-09-16T04:48:29.506Z,11.17
2018-09-16T04:51:00.957Z,10.33
2018-09-16T04:53:33.500Z,10.70
2018-09-16T04:56:04.820Z,10.30
2018-09-16T04:58:37.086Z,11.78
2018-09-16T05:01:08.955Z,11.73
2018-09-16T05:03:40.454Z,11.75
2018-09-16T05:06:11.553Z,14.65
2018-09-16T05:08:44.573Z,13.25
2018-09-16T05:11:15.912Z,13.58
2018-09-16T05:13:47.501Z,13.45
2018-09-16T05:16:18.722Z,12.58
2018-09-16T05:18:50.603Z,14.83
2018-09-16T05:21:21.526Z,12.95
2018-09-16T05:23:53.255Z,18.02
2018-09-16T05:26:24.609Z,20.15
2018-09-16T05:28:56.301Z,20.50
2018-09-16T05:31:27.673Z,21.35
2018-09-16T05:33:59.339Z,25.43
2018-09-16T05:36:30.969Z,27.90
2018-09-16T05:39:02.507Z,43.87
2018-09-16T05:41:33.998Z,42.30
2018-09-16T05:44:05.750Z,41.25
2018-09-16T05:46:37.050Z,40.60
2018-09-16T05:49:08.380Z,38.70
2018-09-16T05:51:39.531Z,35.40
2018-09-16T05:54:10.879Z,34.95
2018-09-16T05:56:41.755Z,32.78
2018-09-16T05:59:14.164Z,25.82
2018-09-16T06:01:45.889Z,19.65
2018-09-16T06:04:17.486Z,21.97
2018-09-16T06:06:48.974Z,20.72
2018-09-16T06:09:21.687Z,19.52
2018-09-16T06:11:52.710Z,16.13
2018-09-16T06:14:24.238Z,13.38
2018-09-16T06:16:55.323Z,13.43
2018-09-16T06:19:26.903Z,13.65
2018-09-16T06:21:58.337Z,14.47
2018-09-16T06:24:29.771Z,11.85
2018-09-16T06:27:00.905Z,13.20
2018-09-16T06:29:32.119Z,12.30
2018-09-16T06:32:04.022Z,11.68
2018-09-16T06:34:35.240Z,11.97
2018-09-16T06:37:06.234Z,10.53
2018-09-16T06:39:37.645Z,11.12
2018-09-16T06:42:08.802Z,14.15
2018-09-16T06:44:40.334Z,11.75
2018-09-16T06:47:11.278Z,10.38
2018-09-16T06:49:43.561Z,10.68
2018-09-16T06:52:14.830Z,11.18
2018-09-16T06:54:46.059Z,10.63
2018-09-16T06:57:17.189Z,9.18
2018-09-16T06:59:48.937Z,10.32
2018-09-16T07:02:20.030Z,10.35
2018-09-16T07:04:51.293Z,10.43
2018-09-16T07:07:22.416Z,9.28
2018-09-16T07:09:55.374Z,9.20
2018-09-16T07:12:26.732Z,9.25
2018-09-16T07:14:58.114Z,9.48
2018-09-16T07:17:29.566Z,10.45
2018-09-16T07:20:00.853Z,8.75
2018-09-16T07:22:32.987Z,8.95
2018-09-16T07:25:07.192Z,8.45
2018-09-16T07:27:38.791Z,9.23
2018-09-16T07:30:10.292Z,10.68
2018-09-16T07:32:42.359Z,8.48
2018-09-16T07:35:13.878Z,9.65
2018-09-16T07:37:45.309Z,9.60
2018-09-16T07:40:16.651Z,8.98
2018-09-16T07:42:47.594Z,8.95
2018-09-16T07:45:18.758Z,8.70
2018-09-16T07:47:50.132Z,10.98
2018-09-16T07:50:21.841Z,9.55
2018-09-16T07:52:53.251Z,9.68
2018-09-16T07:55:24.842Z,9.30
2018-09-16T07:57:56.249Z,9.20
2018-09-16T08:00:28.449Z,8.68
2018-09-16T08:02:59.989Z,9.08
2018-09-16T08:05:31.732Z,8.98
2018-09-16T08:08:03.626Z,9.58
2018-09-16T08:10:36.249Z,9.63
2018-09-16T08:13:08.955Z,9.65
2018-09-16T08:15:40.708Z,9.10
2018-09-16T08:18:11.809Z,8.25
2018-09-16T08:20:43.664Z,7.50
2018-09-16T08:23:14.917Z,9.93
2018-09-16T08:25:46.497Z,8.98
2018-09-16T08:28:18.001Z,8.80
2018-09-16T08:30:49.933Z,8.10
2018-09-16T08:33:21.273Z,9.23
2018-09-16T08:35:54.135Z,9.53
2018-09-16T08:38:26.056Z,8.93
2018-09-16T08:40:57.771Z,8.70
2018-09-16T08:43:28.842Z,8.38
2018-09-16T08:46:00.483Z,8.90
2018-09-16T08:48:32.006Z,9.05
2018-09-16T08:51:04.102Z,9.13
2018-09-16T08:53:35.222Z,9.00
2018-09-16T08:56:07.387Z,8.90
2018-09-16T08:58:38.949Z,8.15
2018-09-16T09:01:10.686Z,9.45
2018-09-16T09:03:42.085Z,9.23
2018-09-16T09:06:14.133Z,8.60
2018-09-16T09:08:45.906Z,8.65
2018-09-16T09:11:18.469Z,9.20
2018-09-16T09:13:49.645Z,8.53
2018-09-16T09:16:21.282Z,9.73
2018-09-16T09:18:52.232Z,8.75
2018-09-16T09:21:23.674Z,8.93
2018-09-16T09:23:54.753Z,8.38
2018-09-16T09:26:26.649Z,9.05
2018-09-16T09:28:57.708Z,9.08
2018-09-16T09:31:29.030Z,9.63
2018-09-16T09:34:00.241Z,8.95
2018-09-16T09:36:31.866Z,8.35
2018-09-16T09:39:04.001Z,8.45
2018-09-16T09:41:35.285Z,8.33
2018-09-16T09:44:07.137Z,8.58
2018-09-16T09:46:39.577Z,8.80
2018-09-16T09:49:10.612Z,9.48
2018-09-16T09:51:43.343Z,8.73
2018-09-16T09:54:14.624Z,9.40
2018-09-16T09:56:46.138Z,8.58
2018-09-16T09:59:17.441Z,9.10
2018-09-16T10:01:49.218Z,8.93
2018-09-16T10:04:20.419Z,8.88
2018-09-16T10:06:51.590Z,9.00
2018-09-16T10:09:23.145Z,8.83
2018-09-16T10:11:55.762Z,8.80
2018-09-16T10:14:26.957Z,7.75
2018-09-16T10:16:58.369Z,8.68
2018-09-16T10:19:29.465Z,9.70
2018-09-16T10:22:01.029Z,9.38
2018-09-16T10:24:32.071Z,8.73
2018-09-16T10:27:05.337Z,10.30
2018-09-16T10:29:36.406Z,8.90
2018-09-16T10:32:08.191Z,8.55
2018-09-16T10:34:39.294Z,10.13
2018-09-16T10:37:11.639Z,8.67
2018-09-16T10:39:42.640Z,9.18
2018-09-16T10:42:13.973Z,8.18
2018-09-16T10:44:45.370Z,8.63
2018-09-16T10:47:16.932Z,8.48
2018-09-16T10:49:48.201Z,9.88
2018-09-16T10:52:19.798Z,8.37
2018-09-16T10:54:50.898Z,8.60
2018-09-16T10:57:22.243Z,8.40
2018-09-16T10:59:53.611Z,8.90
2018-09-16T11:02:24.889Z,8.78
2018-09-16T11:04:55.934Z,8.90
2018-09-16T11:07:27.666Z,8.38
2018-09-16T11:09:58.714Z,9.05
2018-09-16T11:12:31.258Z,9.08
2018-09-16T11:15:02.265Z,10.80
2018-09-16T11:17:33.713Z,9.83
2018-09-16T11:20:04.779Z,9.68
2018-09-16T11:22:36.177Z,9.88
2018-09-16T11:25:07.743Z,9.97
2018-09-16T11:27:39.328Z,10.15
2018-09-16T11:30:10.720Z,10.00
2018-09-16T11:32:42.207Z,10.50
2018-09-16T11:35:13.270Z,9.73
2018-09-16T11:37:44.670Z,9.90
2018-09-16T11:40:15.735Z,9.97
2018-09-16T11:42:47.133Z,10.75
2018-09-16T11:45:18.537Z,9.03
2018-09-16T11:47:50.024Z,9.97
2018-09-16T11:50:21.333Z,9.43
2018-09-16T11:52:53.041Z,10.07
2018-09-16T11:55:24.257Z,9.83
2018-09-16T11:57:55.968Z,11.37
2018-09-16T12:00:27.301Z,12.70
2018-09-16T12:02:58.855Z,12.27
2018-09-16T12:05:30.334Z,12.13
2018-09-16T12:08:02.619Z,11.07
2018-09-16T12:10:33.445Z,12.30
2018-09-16T12:13:07.465Z,9.03
2018-09-16T12:15:38.929Z,9.40
2018-09-16T12:18:10.479Z,10.80
2018-09-16T12:20:42.225Z,9.10
2018-09-16T12:23:14.007Z,10.43
2018-09-16T12:25:45.546Z,10.13
2018-09-16T12:28:17.210Z,10.27
2018-09-16T12:30:48.793Z,9.93
2018-09-16T12:33:20.509Z,9.70
2018-09-16T12:35:51.889Z,10.30
2018-09-16T12:38:23.897Z,10.10
2018-09-16T12:40:55.254Z,9.43
2018-09-16T12:43:26.734Z,11.70
2018-09-16T12:45:57.781Z,12.40
2018-09-16T12:48:29.314Z,12.30
2018-09-16T12:51:00.726Z,12.47
2018-09-16T12:53:32.490Z,12.63
2018-09-16T12:56:04.426Z,12.70
2018-09-16T12:58:36.691Z,11.90
2018-09-16T13:01:08.342Z,12.67
2018-09-16T13:03:40.117Z,11.17
2018-09-16T13:06:11.497Z,11.73
2018-09-16T13:08:43.125Z,11.17
2018-09-16T13:11:14.705Z,13.33
2018-09-16T13:13:47.715Z,13.23
2018-09-16T13:16:19.109Z,10.60
2018-09-16T13:18:50.909Z,11.30
2018-09-16T13:21:22.278Z,10.70
2018-09-16T13:23:53.786Z,12.40
2018-09-16T13:26:25.602Z,11.83
2018-09-16T13:28:57.199Z,12.07
2018-09-16T13:31:28.228Z,10.90
2018-09-16T13:33:59.856Z,13.60
2018-09-16T13:36:30.826Z,12.43
2018-09-16T13:39:02.161Z,10.70
2018-09-16T13:41:33.926Z,11.37
2018-09-16T13:44:07.750Z,11.90
2018-09-16T13:46:39.197Z,11.83
2018-09-16T13:49:10.524Z,12.40
2018-09-16T13:51:41.931Z,10.87
2018-09-16T13:54:13.585Z,11.60
2018-09-16T13:56:44.989Z,12.87
2018-09-16T13:59:16.939Z,11.57
2018-09-16T14:01:50.162Z,12.30
2018-09-16T14:04:22.225Z,12.40
2018-09-16T14:06:53.647Z,14.40
2018-09-16T14:09:25.528Z,12.77
2018-09-16T14:11:57.777Z,13.50
2018-09-16T14:14:30.511Z,12.77
2018-09-16T14:17:01.861Z,12.50
2018-09-16T14:19:33.541Z,12.03
2018-09-16T14:22:05.747Z,13.80
2018-09-16T14:24:37.220Z,13.30
2018-09-16T14:27:08.613Z,13.20
2018-09-16T14:29:40.554Z,14.37
2018-09-16T14:32:11.866Z,13.57
2018-09-16T14:34:43.614Z,13.20
2018-09-16T14:37:15.110Z,12.50
2018-09-16T14:39:47.083Z,12.53
2018-09-16T14:42:18.413Z,12.73
2018-09-16T14:44:50.445Z,12.97
2018-09-16T14:47:21.761Z,12.10
2018-09-16T14:49:53.718Z,13.00
2018-09-16T14:52:25.066Z,12.87
2018-09-16T14:54:56.606Z,14.97
2018-09-16T14:57:27.618Z,13.30
2018-09-16T14:59:59.122Z,13.70
2018-09-16T15:02:30.381Z,12.67
2018-09-16T15:05:02.221Z,12.90
2018-09-16T15:07:33.266Z,13.67
2018-09-16T15:10:04.982Z,14.77
2018-09-16T15:12:36.221Z,13.50
2018-09-16T15:15:08.810Z,12.70
2018-09-16T15:17:40.173Z,13.53
2018-09-16T15:20:11.607Z,12.97
2018-09-16T15:22:42.746Z,13.77
2018-09-16T15:25:14.096Z,14.97
2018-09-16T15:27:45.293Z,14.90
2018-09-16T15:30:16.521Z,14.57
2018-09-16T15:32:47.761Z,14.20
2018-09-16T15:35:19.839Z,15.33
2018-09-16T15:37:51.018Z,14.43
2018-09-16T15:40:22.337Z,14.87
2018-09-16T15:42:53.866Z,14.17
2018-09-16T15:45:25.333Z,14.30
2018-09-16T15:47:56.410Z,13.43
2018-09-16T15:50:27.692Z,15.60
2018-09-16T15:52:58.730Z,16.20
2018-09-16T15:55:30.330Z,14.07
2018-09-16T15:58:02.631Z,14.50
2018-09-16T16:00:34.377Z,13.53
2018-09-16T16:03:05.649Z,14.20
2018-09-16T16:05:37.301Z,15.37
2018-09-16T16:08:08.542Z,14.13
2018-09-16T16:10:40.248Z,14.97
2018-09-16T16:13:11.306Z,14.00
2018-09-16T16:15:44.025Z,13.67
2018-09-16T16:18:16.072Z,15.87
2018-09-16T16:20:48.192Z,13.27
2018-09-16T16:23:19.342Z,14.00
2018-09-16T16:25:51.021Z,14.93
2018-09-16T16:28:22.249Z,13.90
2018-09-16T16:30:53.734Z,14.30
2018-09-16T16:33:25.089Z,14.97
2018-09-16T16:35:56.834Z,13.80
2018-09-16T16:38:28.269Z,13.70
2018-09-16T16:40:59.973Z,13.70
2018-09-16T16:43:31.010Z,12.93
2018-09-16T16:46:02.630Z,13.40
2018-09-16T16:48:34.499Z,12.70
2018-09-16T16:51:06.366Z,13.63
2018-09-16T16:53:37.893Z,13.67
2018-09-16T16:56:09.266Z,14.03
2018-09-16T16:58:40.498Z,12.53
2018-09-16T17:01:12.523Z,13.43
2018-09-16T17:03:43.795Z,13.83
2018-09-16T17:06:15.910Z,13.60
2018-09-16T17:08:46.949Z,12.13
2018-09-16T17:11:18.657Z,13.40
2018-09-16T17:13:49.857Z,13.77
2018-09-16T17:16:23.036Z,13.57
2018-09-16T17:18:55.077Z,13.50
2018-09-16T17:21:26.484Z,13.27
2018-09-16T17:23:58.054Z,12.53
2018-09-16T17:26:29.943Z,14.00
2018-09-16T17:29:01.655Z,12.67
2018-09-16T17:31:33.434Z,12.50
2018-09-16T17:34:04.935Z,13.70
2018-09-16T17:36:36.503Z,13.97
2018-09-16T17:39:10.237Z,12.80
2018-09-16T17:41:42.525Z,14.17
2018-09-16T17:44:13.859Z,15.50
2018-09-16T17:46:45.715Z,13.70
2018-09-16T17:49:17.114Z,15.00
2018-09-16T17:51:48.615Z,15.83
2018-09-16T17:54:19.906Z,15.17
2018-09-16T17:56:51.599Z,14.33
2018-09-16T17:59:23.175Z,15.53
2018-09-16T18:01:54.701Z,16.03
2018-09-16T18:04:27.489Z,14.33
2018-09-16T18:06:59.309Z,15.80
2018-09-16T18:09:30.673Z,14.63
2018-09-16T18:12:02.434Z,15.10
2018-09-16T18:14:33.949Z,15.37
2018-09-16T18:17:08.061Z,15.60
2018-09-16T18:19:39.629Z,15.80
2018-09-16T18:22:11.819Z,16.23
2018-09-16T18:24:42.977Z,15.10
2018-09-16T18:27:14.993Z,16.60
2018-09-16T18:29:46.199Z,14.90
2018-09-16T18:32:18.037Z,15.80
2018-09-16T18:34:49.460Z,17.30
2018-09-16T18:37:20.990Z,15.90
2018-09-16T18:39:52.337Z,16.40
2018-09-16T18:42:24.298Z,16.30
2018-09-16T18:44:55.962Z,16.03
2018-09-16T18:47:27.666Z,15.33
2018-09-16T18:49:59.086Z,16.40
2018-09-16T18:52:31.190Z,16.00
2018-09-16T18:55:02.306Z,15.27
2018-09-16T18:57:34.070Z,17.37
2018-09-16T19:00:05.588Z,15.53
2018-09-16T19:02:37.425Z,14.77
2018-09-16T19:05:09.091Z,16.17
2018-09-16T19:07:40.851Z,15.00
2018-09-16T19:10:12.413Z,15.00
2018-09-16T19:12:44.110Z,14.87
2018-09-16T19:15:15.503Z,16.00
2018-09-16T19:17:48.188Z,17.50
2018-09-16T19:20:19.859Z,16.67
2018-09-16T19:22:51.804Z,15.63
2018-09-16T19:25:23.838Z,16.63
2018-09-16T19:27:55.481Z,16.17
2018-09-16T19:30:26.878Z,14.77
2018-09-16T19:32:58.417Z,15.37
2018-09-16T19:35:29.702Z,16.43
2018-09-16T19:38:01.596Z,17.40
2018-09-16T19:40:33.107Z,16.97
2018-09-16T19:43:04.774Z,16.33
2018-09-16T19:45:36.230Z,16.33
2018-09-16T19:48:08.113Z,17.60
2018-09-16T19:50:39.482Z,15.90
2018-09-16T19:53:11.910Z,15.73
2018-09-16T19:55:43.161Z,15.40
2018-09-16T19:58:14.970Z,15.60
2018-09-16T20:00:46.389Z,17.77
2018-09-16T20:03:18.184Z,16.90
2018-09-16T20:05:49.660Z,15.70
2018-09-16T20:08:21.058Z,15.37
2018-09-16T20:10:52.518Z,16.27
2018-09-16T20:13:24.123Z,15.50
2018-09-16T20:15:56.212Z,15.67
2018-09-16T20:18:28.998Z,15.80
2018-09-16T20:21:00.545Z,15.30
2018-09-16T20:23:31.939Z,16.37
2018-09-16T20:26:03.697Z,16.40
2018-09-16T20:28:35.439Z,16.57
2018-09-16T20:31:07.044Z,16.70
2018-09-16T20:33:39.094Z,16.70
2018-09-16T20:36:10.198Z,15.63
2018-09-16T20:38:41.806Z,16.20
2018-09-16T20:41:13.178Z,17.90
2018-09-16T20:43:44.776Z,15.03
2018-09-16T20:46:16.501Z,15.93
2018-09-16T20:48:48.077Z,16.83
2018-09-16T20:51:19.426Z,17.10
2018-09-16T20:53:51.780Z,16.67
2018-09-16T20:56:23.065Z,15.90
2018-09-16T20:58:54.758Z,15.03
2018-09-16T21:01:26.610Z,17.30
2018-09-16T21:03:58.890Z,14.80
2018-09-16T21:06:30.109Z,17.53
2018-09-16T21:09:02.685Z,15.10
2018-09-16T21:11:34.084Z,14.67
2018-09-16T21:14:05.995Z,16.60
2018-09-16T21:16:37.337Z,15.50
2018-09-16T21:19:10.031Z,15.13
2018-09-16T21:21:41.407Z,15.67
2018-09-16T21:24:13.165Z,15.63
2018-09-16T21:26:45.111Z,15.37
2018-09-16T21:29:16.875Z,15.80
2018-09-16T21:31:48.282Z,15.47
2018-09-16T21:34:20.011Z,15.97
2018-09-16T21:36:51.425Z,15.80
2018-09-16T21:39:22.897Z,15.67
2018-09-16T21:41:54.320Z,14.20
2018-09-16T21:44:25.963Z,15.87
2018-09-16T21:46:57.369Z,16.07
2018-09-16T21:49:28.906Z,15.50
2018-09-16T21:52:00.202Z,14.73
2018-09-16T21:54:31.896Z,15.00
2018-09-16T21:57:03.723Z,15.30
2018-09-16T21:59:35.386Z,13.90
2018-09-16T22:02:06.905Z,15.90
2018-09-16T22:04:38.249Z,16.87
2018-09-16T22:07:09.629Z,14.57
2018-09-16T22:09:41.458Z,14.90
2018-09-16T22:12:12.731Z,14.90
2018-09-16T22:14:44.397Z,14.73
2018-09-16T22:17:16.030Z,14.90
2018-09-16T22:19:48.774Z,16.27
2018-09-16T22:22:20.258Z,13.80
2018-09-16T22:24:51.901Z,15.57
2018-09-16T22:27:23.481Z,15.33
2018-09-16T22:29:55.342Z,15.10
2018-09-16T22:32:26.708Z,15.03
2018-09-16T22:34:58.685Z,14.20
2018-09-16T22:37:30.224Z,15.37
2018-09-16T22:40:01.941Z,14.70
2018-09-16T22:42:33.332Z,14.57
2018-09-16T22:45:07.726Z,15.30
2018-09-16T22:47:40.234Z,14.57
2018-09-16T22:50:12.386Z,13.60
2018-09-16T22:52:43.747Z,13.60
2018-09-16T22:55:15.589Z,14.27
2018-09-16T22:57:47.098Z,16.13
2018-09-16T23:00:19.169Z,15.80
2018-09-16T23:02:50.309Z,15.30
2018-09-16T23:05:21.989Z,15.50
2018-09-16T23:07:53.206Z,15.50
2018-09-16T23:10:24.989Z,17.73
2018-09-16T23:12:56.481Z,14.83
2018-09-16T23:15:28.050Z,16.30
2018-09-16T23:17:59.486Z,15.17
2018-09-16T23:20:32.814Z,15.43
2018-09-16T23:23:05.930Z,14.83
2018-09-16T23:25:37.601Z,14.87
2018-09-16T23:28:08.986Z,15.40
2018-09-16T23:30:40.906Z,14.43
2018-09-16T23:33:12.298Z,13.67
2018-09-16T23:35:44.221Z,13.90
2018-09-16T23:38:15.534Z,14.47
2018-09-16T23:40:46.993Z,16.33
2018-09-16T23:43:18.525Z,16.30
2018-09-16T23:45:50.003Z,14.47
2018-09-16T23:48:21.474Z,13.43
2018-09-16T23:50:52.830Z,15.50
2018-09-16T23:53:24.125Z,15.83
2018-09-16T23:55:55.693Z,14.60
2018-09-16T23:58:27.173Z,14.80
